FFT4372 KSNA-KLAS
Flight info
| Callsign | FFT4372 |
|---|---|
| Flight time | 0h 43m |
| Altitude | 29000 |
| Route | FINZZ3 MISEN RNDRZ4 |
| Aircraft | A20N/M-SDE2E3FGHIRWXY/LB1 |
Departure
| Time | 2026-05-04 00:27 |
|---|---|
| Airport | John Wayne Orange County International Airport (KSNA) |
Arrival
| Time | 2026-05-04 01:10 |
|---|---|
| Airport | Harry Reid International Airport (KLAS) |
| Time | Latitude | Longitude | Altitude | Speed | Heading |
|---|---|---|---|---|---|
| 2026-05-04 00:14 | 33.67969 | -117.86214 | 54 ft | 0 kts | 119° |
| 2026-05-04 00:20 | 33.67978 | -117.86234 | 54 ft | 3 kts | 119° |
| 2026-05-04 00:20 | 33.67988 | -117.86255 | 49 ft | 3 kts | 109° |
| 2026-05-04 00:20 | 33.67988 | -117.86278 | 47 ft | 3 kts | 58° |
| 2026-05-04 00:21 | 33.67982 | -117.86288 | 48 ft | 0 kts | 31° |
| 2026-05-04 00:23 | 33.67983 | -117.86287 | 54 ft | 1 kts | 31° |
| 2026-05-04 00:23 | 33.68017 | -117.86268 | 54 ft | 8 kts | 13° |
| 2026-05-04 00:23 | 33.68068 | -117.86309 | 51 ft | 11 kts | 302° |
| 2026-05-04 00:23 | 33.68102 | -117.86393 | 54 ft | 8 kts | 296° |
| 2026-05-04 00:24 | 33.68112 | -117.86417 | 51 ft | 0 kts | 297° |
| 2026-05-04 00:26 | 33.68122 | -117.86438 | 51 ft | 8 kts | 298° |
| 2026-05-04 00:26 | 33.68150 | -117.86514 | 52 ft | 7 kts | 262° |
| 2026-05-04 00:26 | 33.68081 | -117.86566 | 54 ft | 31 kts | 207° |
| 2026-05-04 00:26 | 33.67640 | -117.86849 | 53 ft | 111 kts | 207° |
| 2026-05-04 00:27 | 33.66792 | -117.87371 | 223 ft | 156 kts | 209° |
| 2026-05-04 00:27 | 33.65738 | -117.88055 | 666 ft | 181 kts | 211° |
| 2026-05-04 00:27 | 33.64659 | -117.88720 | 1753 ft | 166 kts | 204° |
| 2026-05-04 00:27 | 33.63527 | -117.89087 | 2496 ft | 180 kts | 189° |
| 2026-05-04 00:28 | 33.62212 | -117.89247 | 3048 ft | 199 kts | 188° |
| 2026-05-04 00:28 | 33.60767 | -117.89429 | 3569 ft | 219 kts | 188° |
| 2026-05-04 00:28 | 33.59169 | -117.89647 | 4054 ft | 242 kts | 188° |
| 2026-05-04 00:28 | 33.57473 | -117.90108 | 4703 ft | 257 kts | 204° |
| 2026-05-04 00:29 | 33.55964 | -117.91253 | 5700 ft | 258 kts | 222° |
| 2026-05-04 00:29 | 33.54653 | -117.92744 | 6642 ft | 263 kts | 224° |
| 2026-05-04 00:29 | 33.53316 | -117.94267 | 7576 ft | 266 kts | 224° |
| 2026-05-04 00:29 | 33.51974 | -117.95788 | 8570 ft | 267 kts | 224° |
| 2026-05-04 00:30 | 33.50840 | -117.97547 | 9517 ft | 271 kts | 245° |
| 2026-05-04 00:30 | 33.50468 | -117.99767 | 10365 ft | 281 kts | 269° |
| 2026-05-04 00:30 | 33.50934 | -118.02151 | 10739 ft | 311 kts | 292° |
| 2026-05-04 00:30 | 33.52280 | -118.04310 | 11048 ft | 341 kts | 315° |
| 2026-05-04 00:31 | 33.53773 | -118.05478 | 11511 ft | 353 kts | 333° |
| 2026-05-04 00:31 | 33.56186 | -118.06205 | 12303 ft | 365 kts | 354° |
| 2026-05-04 00:31 | 33.58733 | -118.05859 | 13072 ft | 375 kts | 15° |
| 2026-05-04 00:31 | 33.61102 | -118.04497 | 13810 ft | 383 kts | 31° |
| 2026-05-04 00:32 | 33.63388 | -118.02815 | 14442 ft | 389 kts | 28° |
| 2026-05-04 00:32 | 33.65876 | -118.01517 | 15061 ft | 391 kts | 11° |
| 2026-05-04 00:32 | 33.68549 | -118.01196 | 15690 ft | 387 kts | 353° |
| 2026-05-04 00:32 | 33.71247 | -118.01376 | 16398 ft | 389 kts | 351° |
| 2026-05-04 00:33 | 33.73968 | -118.01536 | 17105 ft | 394 kts | 351° |
| 2026-05-04 00:33 | 33.79506 | -118.01761 | 18455 ft | 402 kts | 351° |
| 2026-05-04 00:33 | 33.82316 | -118.01836 | 19046 ft | 406 kts | 351° |
| 2026-05-04 00:34 | 33.85151 | -118.01893 | 19666 ft | 410 kts | 351° |
| 2026-05-04 00:34 | 33.87993 | -118.01934 | 20253 ft | 414 kts | 351° |
| 2026-05-04 00:34 | 33.90908 | -118.01958 | 20838 ft | 418 kts | 351° |
| 2026-05-04 00:34 | 33.93842 | -118.01966 | 21407 ft | 422 kts | 351° |
| 2026-05-04 00:35 | 33.96793 | -118.01957 | 21987 ft | 426 kts | 351° |
| 2026-05-04 00:35 | 33.99771 | -118.01931 | 22549 ft | 431 kts | 351° |
| 2026-05-04 00:35 | 34.02787 | -118.01890 | 23090 ft | 435 kts | 351° |
| 2026-05-04 00:35 | 34.05835 | -118.01830 | 23632 ft | 440 kts | 351° |
| 2026-05-04 00:36 | 34.08901 | -118.01756 | 24121 ft | 443 kts | 351° |
| 2026-05-04 00:36 | 34.11987 | -118.01669 | 24625 ft | 445 kts | 351° |
| 2026-05-04 00:36 | 34.15091 | -118.01569 | 25099 ft | 448 kts | 351° |
| 2026-05-04 00:36 | 34.18215 | -118.01458 | 25571 ft | 451 kts | 351° |
| 2026-05-04 00:37 | 34.21354 | -118.01338 | 26072 ft | 453 kts | 352° |
| 2026-05-04 00:37 | 34.24537 | -118.00812 | 26580 ft | 470 kts | 5° |
| 2026-05-04 00:37 | 34.27634 | -117.99440 | 26875 ft | 479 kts | 18° |
| 2026-05-04 00:37 | 34.30471 | -117.97254 | 26945 ft | 492 kts | 33° |
| 2026-05-04 00:38 | 34.32896 | -117.94342 | 26940 ft | 504 kts | 47° |
| 2026-05-04 00:38 | 34.34812 | -117.90775 | 26930 ft | 508 kts | 62° |
| 2026-05-04 00:38 | 34.36216 | -117.86787 | 26928 ft | 509 kts | 68° |
| 2026-05-04 00:38 | 34.37480 | -117.82844 | 26920 ft | 508 kts | 67° |
| 2026-05-04 00:39 | 34.38868 | -117.78856 | 26908 ft | 508 kts | 65° |
| 2026-05-04 00:39 | 34.40332 | -117.75004 | 26896 ft | 508 kts | 63° |
| 2026-05-04 00:39 | 34.41873 | -117.71160 | 26891 ft | 507 kts | 62° |
| 2026-05-04 00:39 | 34.43444 | -117.67342 | 26882 ft | 507 kts | 62° |
| 2026-05-04 00:40 | 34.45028 | -117.63523 | 26884 ft | 507 kts | 62° |
| 2026-05-04 00:40 | 34.46613 | -117.59703 | 26888 ft | 507 kts | 62° |
| 2026-05-04 00:40 | 34.48190 | -117.55897 | 26894 ft | 506 kts | 62° |
| 2026-05-04 00:40 | 34.49768 | -117.52078 | 26899 ft | 506 kts | 62° |
| 2026-05-04 00:41 | 34.51340 | -117.48267 | 26915 ft | 505 kts | 62° |
| 2026-05-04 00:41 | 34.52907 | -117.44460 | 26924 ft | 505 kts | 62° |
| 2026-05-04 00:41 | 34.54476 | -117.40645 | 26924 ft | 505 kts | 62° |
| 2026-05-04 00:41 | 34.56040 | -117.36839 | 26926 ft | 504 kts | 62° |
| 2026-05-04 00:42 | 34.57602 | -117.33031 | 26924 ft | 504 kts | 62° |
| 2026-05-04 00:42 | 34.59165 | -117.29216 | 26924 ft | 504 kts | 62° |
| 2026-05-04 00:42 | 34.60724 | -117.25407 | 26918 ft | 506 kts | 62° |
| 2026-05-04 00:42 | 34.62289 | -117.21581 | 26903 ft | 505 kts | 62° |
| 2026-05-04 00:43 | 34.63846 | -117.17767 | 26889 ft | 504 kts | 62° |
| 2026-05-04 00:43 | 34.65401 | -117.13953 | 26873 ft | 504 kts | 62° |
| 2026-05-04 00:43 | 34.66956 | -117.10139 | 26852 ft | 504 kts | 62° |
| 2026-05-04 00:43 | 34.68509 | -117.06321 | 26838 ft | 504 kts | 62° |
| 2026-05-04 00:44 | 34.70062 | -117.02503 | 26792 ft | 504 kts | 62° |
| 2026-05-04 00:44 | 34.71613 | -116.98682 | 26788 ft | 504 kts | 62° |
| 2026-05-04 00:44 | 34.73164 | -116.94857 | 26786 ft | 504 kts | 62° |
| 2026-05-04 00:44 | 34.74714 | -116.91030 | 26790 ft | 504 kts | 62° |
| 2026-05-04 00:45 | 34.76260 | -116.87206 | 26792 ft | 504 kts | 62° |
| 2026-05-04 00:45 | 34.77807 | -116.83379 | 26798 ft | 504 kts | 62° |
| 2026-05-04 00:45 | 34.79353 | -116.79549 | 26795 ft | 505 kts | 62° |
| 2026-05-04 00:45 | 34.80896 | -116.75721 | 26794 ft | 503 kts | 62° |
| 2026-05-04 00:46 | 34.82438 | -116.71893 | 26796 ft | 504 kts | 62° |
| 2026-05-04 00:46 | 34.84005 | -116.68073 | 26792 ft | 504 kts | 58° |
| 2026-05-04 00:46 | 34.85964 | -116.64578 | 26790 ft | 498 kts | 45° |
| 2026-05-04 00:46 | 34.88374 | -116.61615 | 26786 ft | 490 kts | 33° |
| 2026-05-04 00:47 | 34.91039 | -116.59034 | 26782 ft | 488 kts | 32° |
| 2026-05-04 00:47 | 34.93697 | -116.56468 | 26774 ft | 488 kts | 32° |
| 2026-05-04 00:47 | 34.96360 | -116.53889 | 26775 ft | 488 kts | 32° |
| 2026-05-04 00:47 | 34.99012 | -116.51316 | 26767 ft | 488 kts | 32° |
| 2026-05-04 00:48 | 35.01665 | -116.48739 | 26763 ft | 488 kts | 32° |
| 2026-05-04 00:48 | 35.04323 | -116.46157 | 26766 ft | 488 kts | 32° |
| 2026-05-04 00:48 | 35.06975 | -116.43576 | 26765 ft | 488 kts | 32° |
| 2026-05-04 00:48 | 35.09618 | -116.40979 | 26767 ft | 489 kts | 35° |
| 2026-05-04 00:49 | 35.12068 | -116.38052 | 26769 ft | 496 kts | 42° |
| 2026-05-04 00:49 | 35.14431 | -116.34980 | 26641 ft | 495 kts | 42° |
| 2026-05-04 00:49 | 35.16782 | -116.31935 | 26416 ft | 490 kts | 42° |
| 2026-05-04 00:49 | 35.19115 | -116.28919 | 25968 ft | 487 kts | 42° |
| 2026-05-04 00:50 | 35.21434 | -116.25919 | 25461 ft | 484 kts | 42° |
| 2026-05-04 00:50 | 35.23736 | -116.22925 | 24911 ft | 482 kts | 43° |
| 2026-05-04 00:50 | 35.25978 | -116.19889 | 24384 ft | 479 kts | 44° |
| 2026-05-04 00:50 | 35.27437 | -116.17876 | 23932 ft | 475 kts | 45° |
| 2026-05-04 00:51 | 35.29615 | -116.14859 | 23163 ft | 472 kts | 45° |
| 2026-05-04 00:51 | 35.31778 | -116.11869 | 22278 ft | 467 kts | 45° |
| 2026-05-04 00:51 | 35.33925 | -116.08912 | 21569 ft | 459 kts | 46° |
| 2026-05-04 00:51 | 35.36005 | -116.06051 | 21180 ft | 443 kts | 46° |
| 2026-05-04 00:52 | 35.38034 | -116.03260 | 20583 ft | 433 kts | 46° |
| 2026-05-04 00:52 | 35.40016 | -116.00536 | 20002 ft | 424 kts | 47° |
| 2026-05-04 00:52 | 35.41957 | -115.97868 | 19384 ft | 416 kts | 47° |
| 2026-05-04 00:52 | 35.43881 | -115.95224 | 18553 ft | 415 kts | 48° |
| 2026-05-04 00:53 | 35.45807 | -115.92577 | 17462 ft | 417 kts | 49° |
| 2026-05-04 00:53 | 35.47733 | -115.89923 | 16504 ft | 414 kts | 50° |
| 2026-05-04 00:53 | 35.49625 | -115.87315 | 15925 ft | 401 kts | 50° |
| 2026-05-04 00:53 | 35.51428 | -115.84823 | 15689 ft | 380 kts | 50° |
| 2026-05-04 00:54 | 35.53133 | -115.82464 | 15476 ft | 360 kts | 50° |
| 2026-05-04 00:54 | 35.54758 | -115.80213 | 15225 ft | 345 kts | 50° |
| 2026-05-04 00:54 | 35.56324 | -115.78042 | 14894 ft | 333 kts | 51° |
| 2026-05-04 00:54 | 35.57823 | -115.75961 | 14798 ft | 323 kts | 51° |
| 2026-05-04 00:55 | 35.59343 | -115.73842 | 14727 ft | 338 kts | 51° |
| 2026-05-04 00:55 | 35.60923 | -115.71676 | 14642 ft | 341 kts | 50° |
| 2026-05-04 00:55 | 35.62510 | -115.69540 | 14550 ft | 337 kts | 50° |
| 2026-05-04 00:55 | 35.64084 | -115.67427 | 14475 ft | 334 kts | 50° |
| 2026-05-04 00:56 | 35.65646 | -115.65323 | 14395 ft | 333 kts | 50° |
| 2026-05-04 00:56 | 35.67209 | -115.63215 | 14291 ft | 334 kts | 50° |
| 2026-05-04 00:56 | 35.68770 | -115.61104 | 14227 ft | 335 kts | 50° |
| 2026-05-04 00:56 | 35.70374 | -115.58930 | 14136 ft | 363 kts | 50° |
| 2026-05-04 00:57 | 35.72170 | -115.56597 | 13922 ft | 385 kts | 44° |
| 2026-05-04 00:57 | 35.74301 | -115.54562 | 13688 ft | 389 kts | 33° |
| 2026-05-04 00:57 | 35.76634 | -115.52914 | 13443 ft | 384 kts | 30° |
| 2026-05-04 00:57 | 35.78950 | -115.51307 | 13173 ft | 381 kts | 30° |
| 2026-05-04 00:58 | 35.81244 | -115.49702 | 13041 ft | 378 kts | 30° |
| 2026-05-04 00:58 | 35.83469 | -115.48141 | 13022 ft | 356 kts | 30° |
| 2026-05-04 00:58 | 35.85550 | -115.46681 | 13025 ft | 332 kts | 31° |
| 2026-05-04 00:58 | 35.87524 | -115.45294 | 13035 ft | 334 kts | 31° |
| 2026-05-04 00:59 | 35.89591 | -115.43837 | 13038 ft | 343 kts | 31° |
| 2026-05-04 00:59 | 35.91643 | -115.42394 | 13026 ft | 335 kts | 31° |
| 2026-05-04 00:59 | 35.93655 | -115.40987 | 12802 ft | 333 kts | 30° |
| 2026-05-04 00:59 | 35.95671 | -115.39581 | 12550 ft | 332 kts | 30° |
| 2026-05-04 01:00 | 35.97680 | -115.38181 | 12295 ft | 331 kts | 30° |
| 2026-05-04 01:00 | 35.99649 | -115.36721 | 11933 ft | 332 kts | 40° |
| 2026-05-04 01:00 | 36.01167 | -115.34604 | 11540 ft | 326 kts | 64° |
| 2026-05-04 01:00 | 36.01854 | -115.32032 | 11250 ft | 309 kts | 89° |
| 2026-05-04 01:01 | 36.01817 | -115.29415 | 10849 ft | 302 kts | 102° |
| 2026-05-04 01:01 | 36.01525 | -115.26854 | 10487 ft | 300 kts | 103° |
| 2026-05-04 01:01 | 36.01234 | -115.24302 | 10115 ft | 299 kts | 102° |
| 2026-05-04 01:01 | 36.01006 | -115.21753 | 9757 ft | 299 kts | 101° |
| 2026-05-04 01:02 | 36.00830 | -115.19199 | 9359 ft | 298 kts | 99° |
| 2026-05-04 01:02 | 36.00688 | -115.16668 | 9133 ft | 295 kts | 98° |
| 2026-05-04 01:02 | 36.00556 | -115.14112 | 9088 ft | 300 kts | 98° |
| 2026-05-04 01:02 | 36.00429 | -115.11542 | 9074 ft | 298 kts | 98° |
| 2026-05-04 01:03 | 36.00303 | -115.08991 | 9017 ft | 298 kts | 98° |
| 2026-05-04 01:03 | 36.00175 | -115.06452 | 8812 ft | 296 kts | 98° |
| 2026-05-04 01:03 | 36.00048 | -115.03913 | 8468 ft | 295 kts | 98° |
| 2026-05-04 01:03 | 35.99921 | -115.01408 | 8158 ft | 287 kts | 98° |
| 2026-05-04 01:04 | 35.99848 | -114.99026 | 8013 ft | 268 kts | 95° |
| 2026-05-04 01:04 | 35.99850 | -114.96799 | 7884 ft | 252 kts | 95° |
| 2026-05-04 01:04 | 35.99863 | -114.94674 | 7638 ft | 243 kts | 95° |
| 2026-05-04 01:04 | 36.00137 | -114.92584 | 7090 ft | 256 kts | 71° |
| 2026-05-04 01:05 | 36.01128 | -114.90920 | 6709 ft | 264 kts | 41° |
| 2026-05-04 01:05 | 36.02694 | -114.89757 | 6366 ft | 264 kts | 15° |
| 2026-05-04 01:05 | 36.04458 | -114.89633 | 6250 ft | 248 kts | 342° |
| 2026-05-04 01:05 | 36.05951 | -114.90466 | 6142 ft | 228 kts | 319° |
| 2026-05-04 01:06 | 36.06962 | -114.91823 | 5956 ft | 208 kts | 288° |
| 2026-05-04 01:06 | 36.07342 | -114.93487 | 5715 ft | 196 kts | 269° |
| 2026-05-04 01:06 | 36.07402 | -114.95126 | 5570 ft | 184 kts | 262° |
| 2026-05-04 01:06 | 36.07384 | -114.96640 | 5476 ft | 170 kts | 262° |
| 2026-05-04 01:07 | 36.07381 | -114.98073 | 5246 ft | 166 kts | 263° |
| 2026-05-04 01:07 | 36.07376 | -114.99534 | 4815 ft | 175 kts | 263° |
| 2026-05-04 01:07 | 36.07375 | -115.01068 | 4400 ft | 181 kts | 264° |
| 2026-05-04 01:07 | 36.07374 | -115.02608 | 4017 ft | 176 kts | 264° |
| 2026-05-04 01:08 | 36.07374 | -115.04085 | 3644 ft | 168 kts | 263° |
| 2026-05-04 01:08 | 36.07372 | -115.05492 | 3366 ft | 159 kts | 263° |
| 2026-05-04 01:08 | 36.07371 | -115.06810 | 3183 ft | 145 kts | 263° |
| 2026-05-04 01:08 | 36.07372 | -115.07992 | 2993 ft | 131 kts | 262° |
| 2026-05-04 01:09 | 36.07367 | -115.09129 | 2827 ft | 136 kts | 262° |
| 2026-05-04 01:09 | 36.07369 | -115.10307 | 2625 ft | 135 kts | 261° |
| 2026-05-04 01:09 | 36.07366 | -115.11455 | 2433 ft | 138 kts | 262° |
| 2026-05-04 01:09 | 36.07366 | -115.12678 | 2227 ft | 143 kts | 263° |
| 2026-05-04 01:10 | 36.07365 | -115.13806 | 2188 ft | 111 kts | 270° |
| 2026-05-04 01:10 | 36.07367 | -115.14504 | 2191 ft | 52 kts | 275° |
| 2026-05-04 01:10 | 36.07383 | -115.14812 | 2193 ft | 34 kts | 289° |
| 2026-05-04 01:10 | 36.07499 | -115.15100 | 2191 ft | 39 kts | 306° |
| 2026-05-04 01:11 | 36.07699 | -115.15227 | 2192 ft | 21 kts | 336° |
| 2026-05-04 01:11 | 36.07813 | -115.15222 | 2188 ft | 2 kts | 78° |
| 2026-05-04 01:11 | 36.07809 | -115.15140 | 2191 ft | 20 kts | 94° |
| 2026-05-04 01:11 | 36.07794 | -115.14963 | 2188 ft | 20 kts | 98° |
| 2026-05-04 01:12 | 36.07784 | -115.14801 | 2190 ft | 18 kts | 92° |
| 2026-05-04 01:12 | 36.07774 | -115.14632 | 2190 ft | 21 kts | 94° |
| 2026-05-04 01:12 | 36.07760 | -115.14448 | 2189 ft | 21 kts | 94° |
| 2026-05-04 01:12 | 36.07753 | -115.14272 | 2187 ft | 20 kts | 86° |
| 2026-05-04 01:13 | 36.07761 | -115.14175 | 2191 ft | 8 kts | 59° |
| 2026-05-04 01:13 | 36.07831 | -115.14158 | 2190 ft | 14 kts | 0° |
| 2026-05-04 01:13 | 36.07939 | -115.14156 | 2189 ft | 16 kts | 355° |
| 2026-05-04 01:13 | 36.08049 | -115.14157 | 2190 ft | 16 kts | 7° |
| 2026-05-04 01:14 | 36.08157 | -115.14109 | 2189 ft | 17 kts | 40° |
| 2026-05-04 01:14 | 36.08207 | -115.14052 | 2191 ft | 4 kts | 49° |
| 2026-05-04 01:14 | 36.08224 | -115.14018 | 2188 ft | 0 kts | 44° |